Latest Weather Observations for West Wyalong

IDN60801

Issued at 4:03 pm EST Friday 3 July 2015 (issued every 30 minutes, with the page automatically refreshed every 10 minutes)

About weather observations | Map of weather stations | Latest weather observations for NSW | Other Formats
Station Details ID: 050017 Name: WEST WYALONG AIRPORT AWS Lat: -33.94 Lon: 147.20 Height: 257.0 m
Data from the previous 72 hours. | See also: Recent months for locations in New South Wales
Date/Time
EST
Temp
°C
App
Temp
°C
Dew
Point
Rel
Hum
%
Delta-T
°C
Wind Press
QNH
hPa
Press
MSL
hPa
Rain
since 9 am
mm
Dir
 
Spd
km/h
Gust
km/h
Spd
kts
Gust
kts
03/04:00pm 11.0 6.5 -0.2 46 4.6 SW 13 17 7 9 1026.1 1026.5 0.0
03/03:30pm 11.1 7.0 -0.4 45 4.7 SW 11 17 6 9 1026.1 1026.5 0.0
03/03:00pm 11.6 8.0 0.4 46 4.7 SSW 9 13 5 7 1025.9 1026.3 0.0
03/02:30pm 11.5 8.2 0.0 45 4.8 W 7 9 4 5 1025.8 1026.2 0.0
03/02:00pm 11.4 9.1 0.2 46 4.6 SW 2 11 1 6 1025.8 1026.2 0.0
03/01:30pm 10.5 7.2 -0.9 45 4.6 SW 6 9 3 5 1026.1 1026.5 0.0
03/01:00pm 10.2 6.9 -1.5 44 4.6 WSW 6 11 3 6 1026.6 1027.0 0.0
03/12:30pm 9.8 7.1 0.4 52 3.9 S 4 9 2 5 1027.1 1027.5 0.0
03/12:00pm 9.3 6.1 0.7 55 3.5 SE 7 9 4 5 1027.6 1028.1 0.0
03/11:30am 8.7 5.9 1.8 62 2.9 SSE 6 7 3 4 1028.2 1028.7 0.0
03/11:00am 8.3 5.9 1.9 64 2.7 ENE 4 9 2 5 1028.5 1029.0 0.0
03/10:30am 6.6 3.9 2.7 76 1.6 E 6 9 3 5 1028.6 1029.1 0.0
03/10:00am 5.4 2.4 2.2 80 1.3 ESE 7 11 4 6 1028.6 1029.1 0.0
03/09:30am 5.1 2.3 2.1 81 1.2 SE 6 7 3 4 1028.7 1029.2 0.0
03/09:00am 3.6 0.9 2.7 94 0.4 S 6 7 3 4 1028.3 1028.8 0.0
03/08:30am 1.8 -1.1 1.7 99 0.0 WSW 6 7 3 4 1028.3 1028.8 0.0
03/08:00am -0.7 -2.8 -0.8 99 0.0 CALM 0 0 0 0 1028.2 1028.7 0.0
03/07:30am -2.2 -5.7 -2.7 96 0.1 SW 6 7 3 4 1028.1 1028.6 0.0
03/07:00am -1.5 -5.1 -2.1 96 0.1 WSW 7 9 4 5 1027.9 1028.4 0.0
03/06:30am -0.3 -4.1 -0.4 99 0.0 SW 9 11 5 6 1027.7 1028.2 0.0
03/06:00am -0.1 -3.9 -0.4 98 0.1 SW 9 11 5 6 1027.3 1027.8 0.0
03/05:30am 0.1 -4.0 -0.2 98 0.1 WSW 11 13 6 7 1027.0 1027.4 0.0
03/05:00am 0.2 -3.5 -0.2 97 0.1 SW 9 11 5 6 1026.8 1027.2 0.0
03/04:30am 0.6 -3.1 0.2 97 0.1 SW 9 13 5 7 1026.7 1027.1 0.0
03/04:00am 0.2 -3.0 -0.5 95 0.3 SW 6 9 3 5 1026.5 1026.9 0.0
03/03:30am -0.1 -3.6 -1.2 92 0.4 WSW 7 11 4 6 1026.4 1026.8 0.0
03/03:00am 1.4 -1.0 -0.1 90 0.6 WSW 2 7 1 4 1026.4 1026.8 0.0
03/02:30am 1.4 -1.8 -0.5 87 0.7 S 6 7 3 4 1026.5 1026.9 0.0
03/02:00am 2.0 -1.3 -0.2 85 0.8 SW 7 9 4 5 1026.4 1026.8 0.0
03/01:30am 3.0 -1.4 0.2 82 1.1 S 13 17 7 9 1026.7 1027.1 0.0
03/01:00am 3.6 -0.8 0.3 79 1.3 S 13 17 7 9 1026.6 1027.0 0.0
03/12:30am 4.0 -0.4 0.5 78 1.4 S 13 19 7 10 1026.7 1027.1 0.0
03/12:00am 3.9 -0.5 0.4 78 1.3 SW 13 19 7 10 1026.9 1027.3 0.0
 
Date/Time
EST
Temp
°C
App
Temp
°C
Dew
Point
Rel
Hum
%
Delta-T
°C
Wind Press
QNH
hPa
Press
MSL
hPa
Rain
since 9 am
mm
Dir
 
Spd
km/h
Gust
km/h
Spd
kts
Gust
kts
02/11:30pm 3.5 -1.0 0.0 78 1.3 SW 13 17 7 9 1027.2 1027.6 0.0
02/11:00pm 4.2 0.6 0.4 76 1.5 S 9 13 5 7 1027.1 1027.5 0.0
02/10:30pm 3.9 -1.6 0.8 80 1.2 SW 19 22 10 12 1027.0 1027.4 0.0
02/10:00pm 3.8 0.6 1.0 82 1.1 SSW 7 9 4 5 1027.3 1027.8 0.0
02/09:30pm 2.9 0.6 0.5 84 0.9 SE 2 7 1 4 1027.0 1027.4 0.0
02/09:00pm 4.0 2.1 0.5 78 1.3 CALM 0 6 0 3 1026.9 1027.3 0.0
02/08:30pm 5.9 1.4 2.2 77 1.5 SW 15 19 8 10 1026.5 1026.9 0.0
02/08:00pm 5.8 2.4 2.1 77 1.5 SSW 9 15 5 8 1026.4 1026.8 0.0
02/07:30pm 6.9 3.2 2.4 73 1.9 SSW 11 15 6 8 1025.9 1026.3 0.0
02/07:00pm 7.8 3.0 2.7 70 2.2 SW 17 26 9 14 1025.2 1025.6 0.0
02/06:30pm 8.6 3.3 2.8 67 2.5 SW 20 26 11 14 1024.7 1025.2 0.0
02/06:00pm 9.4 3.8 3.4 66 2.6 SW 22 32 12 17 1024.7 1025.2 0.0
02/05:30pm 9.7 5.8 5.5 75 1.9 WSW 15 17 8 9 1024.4 1024.9 0.0
02/05:00pm 10.4 5.8 5.4 71 2.3 WSW 19 24 10 13 1023.9 1024.3 0.0
02/04:30pm 11.0 5.4 5.3 68 2.6 WSW 24 35 13 19 1023.8 1024.2 0.0
02/04:00pm 11.0 5.1 6.0 71 2.3 SW 26 35 14 19 1023.5 1023.9 0.0
02/03:30pm 10.9 5.6 6.6 75 2.1 WSW 24 32 13 17 1023.3 1023.7 0.0
02/03:00pm 10.9 4.7 6.3 73 2.2 WSW 28 37 15 20 1023.2 1023.6 0.0
02/02:30pm 11.1 6.1 6.6 74 2.2 W 22 32 12 17 1022.3 1022.7 0.0
02/02:00pm 10.1 4.9 7.2 82 1.4 WSW 24 35 13 19 1023.0 1023.4 0.0
02/01:30pm 9.4 4.0 6.3 81 1.5 WSW 24 37 13 20 1023.2 1023.6 0.0
02/01:00pm 11.0 4.8 4.5 64 3.0 W 26 39 14 21 1023.0 1023.4 0.0
02/12:30pm 11.2 5.0 4.2 62 3.2 W 26 35 14 19 1023.1 1023.5 0.0
02/12:00pm 12.1 5.9 4.1 58 3.6 WNW 26 37 14 20 1023.6 1024.0 0.0
02/11:30am 11.1 5.2 3.9 61 3.2 W 24 35 13 19 1024.1 1024.6 0.0
02/11:00am 10.1 4.4 2.9 61 3.1 W 22 30 12 16 1024.7 1025.2 0.0
02/10:30am 9.8 4.7 3.1 63 2.9 W 19 28 10 15 1025.0 1025.5 0.0
02/10:00am 8.7 3.4 3.1 68 2.4 W 20 28 11 15 1025.3 1025.7 0.0
02/09:30am 8.3 3.0 2.8 68 2.4 WNW 20 30 11 16 1025.0 1025.5 0.0
02/09:00am 7.4 3.0 2.9 73 1.9 WNW 15 20 8 11 1025.2 1025.6 0.0
02/08:30am 6.3 2.6 2.6 77 1.5 WNW 11 17 6 9 1025.0 1025.5 0.0
02/08:00am 5.3 2.4 2.7 83 1.1 WNW 7 11 4 6 1025.0 1025.5 0.0
02/07:30am 5.3 2.1 3.0 85 1.0 WNW 9 11 5 6 1024.8 1025.3 0.0
02/07:00am 4.4 1.7 2.4 87 0.8 W 6 7 3 4 1024.7 1025.2 0.0
02/06:30am 4.6 1.3 2.5 86 0.9 W 9 11 5 6 1024.5 1025.0 0.0
02/06:00am 5.0 1.7 2.7 85 0.9 W 9 13 5 7 1024.5 1025.0 0.0
02/05:30am 4.6 0.5 2.1 84 1.0 W 13 17 7 9 1024.3 1024.8 0.0
02/05:00am 4.2 1.2 2.1 86 0.8 WNW 7 7 4 4 1024.3 1024.8 0.0
02/04:30am 3.8 0.1 2.2 89 0.6 W 11 11 6 6 1024.4 1024.9 0.0
02/04:00am 4.2 1.3 2.6 89 0.7 W 7 9 4 5 1024.4 1024.9 0.0
02/03:30am 3.8 1.0 2.3 90 0.6 W 6 7 3 4 1024.8 1025.3 0.0
02/03:00am 3.9 1.1 2.3 89 0.6 W 6 7 3 4 1025.2 1025.6 0.0
02/02:30am 4.3 1.0 2.7 89 0.7 W 9 9 5 5 1025.6 1026.0 0.0
02/02:00am 4.3 1.0 2.7 89 0.7 W 9 11 5 6 1025.4 1025.8 0.0
02/01:30am 4.4 1.5 2.6 88 0.7 W 7 9 4 5 1025.5 1025.9 0.0
02/01:00am 4.4 1.1 2.4 87 0.8 W 9 11 5 6 1025.8 1026.2 0.0
02/12:30am 5.4 2.3 3.4 87 0.8 W 9 11 5 6 1026.2 1026.6 0.0
02/12:00am 5.1 2.1 3.9 92 0.5 W 9 11 5 6 1026.2 1026.6 0.0
 
Date/Time
EST
Temp
°C
App
Temp
°C
Dew
Point
Rel
Hum
%
Delta-T
°C
Wind Press
QNH
hPa
Press
MSL
hPa
Rain
since 9 am
mm
Dir
 
Spd
km/h
Gust
km/h
Spd
kts
Gust
kts
01/11:30pm 4.8 2.3 3.8 93 0.4 W 6 7 3 4 1026.2 1026.6 0.0
01/11:00pm 4.9 2.1 2.9 87 0.8 W 7 9 4 5 1026.1 1026.5 0.0
01/10:30pm 5.6 2.9 2.6 81 1.2 W 6 7 3 4 1026.1 1026.5 0.0
01/10:00pm 6.8 4.2 3.4 79 1.4 WSW 6 9 3 5 1026.5 1026.9 0.0
01/09:30pm 7.4 4.6 3.3 75 1.8 SSW 7 11 4 6 1026.5 1026.9 0.0
01/09:00pm 7.4 4.3 3.6 77 1.6 SW 9 11 5 6 1026.9 1027.3 0.0
01/08:30pm 7.4 4.8 4.2 80 1.4 WSW 7 9 4 5 1026.7 1027.1 0.0
01/08:00pm 7.1 4.5 4.4 83 1.2 SW 7 7 4 4 1026.6 1027.0 0.0
01/07:30pm 7.1 5.1 4.2 82 1.3 WSW 4 11 2 6 1026.4 1026.8 0.0
01/07:00pm 7.2 5.5 4.2 81 1.3 W 2 7 1 4 1026.2 1026.6 0.0
01/06:30pm 8.0 5.1 4.4 78 1.6 WSW 9 11 5 6 1026.5 1026.9 0.0
01/06:00pm 8.0 5.6 4.4 78 1.6 W 6 7 3 4 1026.3 1026.7 0.0
01/05:30pm 8.6 6.0 4.0 73 2.0 WSW 7 9 4 5 1026.4 1026.8 0.0
01/05:00pm 9.0 5.9 3.8 70 2.3 WSW 9 13 5 7 1026.4 1026.8 0.0
01/04:30pm 9.2 5.8 4.2 71 2.2 SW 11 15 6 8 1026.3 1026.7 0.0
01/04:00pm 9.3 5.9 3.9 69 2.4 SW 11 13 6 7 1026.2 1026.6 0.0
01/03:30pm 9.3 6.1 3.3 66 2.6 SSW 9 13 5 7 1026.0 1026.4 0.0
01/03:00pm 9.8 6.3 3.3 64 2.8 SW 11 17 6 9 1026.2 1026.6 0.0
01/02:30pm 9.8 6.0 3.8 66 2.7 SW 13 20 7 11 1026.3 1026.7 0.0
01/02:00pm 9.4 5.1 3.4 66 2.6 S 15 19 8 10 1026.6 1027.0 0.0
01/01:30pm 9.5 5.2 3.5 66 2.6 SSW 15 20 8 11 1027.0 1027.4 0.0
01/01:00pm 9.2 5.3 3.4 67 2.5 S 13 17 7 9 1027.4 1027.9 0.0
01/12:30pm 8.9 5.0 3.3 68 2.4 S 13 19 7 10 1027.8 1028.3 0.0
01/12:00pm 8.7 4.8 3.5 70 2.3 SSW 13 19 7 10 1028.3 1028.8 0.0
01/11:30am 9.5 6.6 4.9 73 2.1 SSW 9 15 5 8 1028.9 1029.4 0.0
01/11:00am 8.7 5.4 4.7 76 1.8 SW 11 17 6 9 1029.5 1029.9 0.0
01/10:30am 7.5 4.8 5.8 89 0.8 SW 9 11 5 6 1029.5 1029.9 0.0
01/10:00am 6.2 3.6 6.2 100 0.0 SW 9 15 5 8 1029.6 1030.0 0.0
01/09:30am 5.9 3.6 5.9 100 0.0 SSW 7 9 4 5 1029.3 1029.6 0.0
01/09:00am 3.9 1.8 3.9 100 0.0 SW 4 9 2 5 1029.0 1029.4 0.2
01/08:30am 2.2 0.6 2.2 100 0.0 CALM 0 0 0 0 1028.7 1029.1 0.2
01/08:00am -0.4 -2.4 -0.4 100 0.0 CALM 0 0 0 0 1028.6 1029.0 0.2
01/07:30am -1.2 -3.4 -1.2 100 0.0 CALM 0 0 0 0 1028.5 1028.9 0.2
01/07:00am -1.0 -3.1 -1.0 100 0.0 CALM 0 0 0 0 1028.4 1028.8 0.2
01/06:30am -0.6 -2.7 -0.6 100 0.0 CALM 0 0 0 0 1028.1 1028.5 0.2
01/06:00am -0.4 -2.4 -0.4 100 0.0 CALM 0 0 0 0 1027.9 1028.3 0.2
01/05:30am 0.8 -1.1 0.8 100 0.0 CALM 0 0 0 0 1027.8 1028.2 0.2
01/05:00am 1.8 -0.7 1.8 100 0.0 ESE 4 7 2 4 1027.6 1028.0 0.2
01/04:30am 2.6 -0.1 2.6 100 0.0 SSE 6 9 3 5 1027.4 1027.7 0.2
01/04:00am 2.4 0.8 2.4 100 0.0 CALM 0 0 0 0 1027.4 1027.7 0.2
01/03:30am 1.8 -1.0 1.8 100 0.0 WSW 6 7 3 4 1027.5 1027.9 0.2
01/03:00am 0.8 -2.4 0.8 100 0.0 W 7 7 4 4 1027.6 1028.0 0.2
01/02:30am 0.0 -2.7 0.0 100 0.0 WSW 4 7 2 4 1027.9 1028.3 0.2
01/02:00am -0.3 -3.7 -0.3 100 0.0 WSW 7 9 4 5 1028.1 1028.5 0.2
01/01:30am -0.8 -3.3 -0.9 99 0.0 W 2 6 1 3 1028.1 1028.5 0.2
01/01:00am -0.8 -3.7 -0.9 99 0.0 WSW 4 7 2 4 1028.2 1028.6 0.2
01/12:30am -0.5 -2.6 -0.6 99 0.0 CALM 0 0 0 0 1028.4 1028.8 0.2
01/12:00am -0.1 -2.1 -0.2 99 0.0 CALM 0 0 0 0 1028.7 1029.1 0.2
 
Date/Time
EST
Temp
°C
App
Temp
°C
Dew
Point
Rel
Hum
%
Delta-T
°C
Wind Press
QNH
hPa
Press
MSL
hPa
Rain
since 9 am
mm
Dir
 
Spd
km/h
Gust
km/h
Spd
kts
Gust
kts
30/11:30pm -0.1 -2.5 -0.2 99 0.0 WSW 2 7 1 4 1028.7 1029.1 0.2
30/11:00pm 0.5 -2.6 0.4 99 0.0 WSW 6 9 3 5 1028.8 1029.2 0.2
30/10:30pm 0.4 -1.5 0.3 99 0.0 CALM 0 0 0 0 1028.7 1029.1 0.2
30/10:00pm 1.1 -0.7 1.0 99 0.0 CALM 0 0 0 0 1028.9 1029.3 0.2
30/09:30pm 2.0 0.3 2.0 100 0.0 CALM 0 0 0 0 1029.0 1029.4 0.2
30/09:00pm 2.2 0.2 2.2 100 0.0 WNW 2 6 1 3 1029.1 1029.5 0.2
30/08:30pm 2.8 0.1 2.8 100 0.0 W 6 7 3 4 1029.0 1029.4 0.2
30/08:00pm 2.7 0.0 2.6 99 0.0 WSW 6 9 3 5 1029.0 1029.4 0.2
30/07:30pm 2.7 1.1 2.6 99 0.0 CALM 0 0 0 0 1028.8 1029.2 0.2
30/07:00pm 4.2 2.5 4.1 99 0.0 WSW 2 7 1 4 1028.6 1029.0 0.2
30/06:30pm 4.9 3.7 4.8 99 0.0 CALM 0 2 0 1 1028.2 1028.6 0.2
30/06:00pm 5.6 3.3 4.6 93 0.4 W 6 7 3 4 1028.1 1028.5 0.2
30/05:30pm 6.7 5.6 5.2 90 0.7 CALM 0 0 0 0 1028.1 1028.5 0.2
30/05:00pm 7.7 5.4 4.8 82 1.3 WSW 6 7 3 4 1028.0 1028.4 0.2
30/04:30pm 7.9 5.6 4.7 80 1.4 SSW 6 7 3 4 1027.8 1028.2 0.2

Other Formats:

Comma delimited format used in spreadsheet applications
http://www.bom.gov.au/fwo/IDN60801/IDN60801.95709.axf

JavaScript Object Notation format (JSON) in row-major order
http://www.bom.gov.au/fwo/IDN60801/IDN60801.95709.json